sensor_id;sensor_type;location;lat;lon;timestamp;P1;durP1;ratioP1;P2;durP2;ratioP2
5225;SDS011;2632;51.666;7.146;2023-07-08T00:01:15;4.40;;;2.83;;
5225;SDS011;2632;51.666;7.146;2023-07-08T00:03:43;3.80;;;2.80;;
5225;SDS011;2632;51.666;7.146;2023-07-08T00:06:18;6.10;;;2.47;;
5225;SDS011;2632;51.666;7.146;2023-07-08T00:08:47;3.00;;;2.70;;
5225;SDS011;2632;51.666;7.146;2023-07-08T00:11:15;8.30;;;2.70;;
5225;SDS011;2632;51.666;7.146;2023-07-08T00:13:42;4.07;;;2.80;;
5225;SDS011;2632;51.666;7.146;2023-07-08T00:16:12;3.50;;;2.70;;
5225;SDS011;2632;51.666;7.146;2023-07-08T00:18:41;4.37;;;2.87;;
5225;SDS011;2632;51.666;7.146;2023-07-08T00:21:09;6.43;;;3.10;;
5225;SDS011;2632;51.666;7.146;2023-07-08T00:23:36;3.93;;;3.20;;
5225;SDS011;2632;51.666;7.146;2023-07-08T00:26:07;4.17;;;2.50;;
5225;SDS011;2632;51.666;7.146;2023-07-08T00:28:47;3.47;;;3.00;;
5225;SDS011;2632;51.666;7.146;2023-07-08T00:31:14;8.30;;;2.50;;
5225;SDS011;2632;51.666;7.146;2023-07-08T00:33:40;3.63;;;2.97;;
5225;SDS011;2632;51.666;7.146;2023-07-08T00:36:08;3.70;;;3.10;;
5225;SDS011;2632;51.666;7.146;2023-07-08T00:38:38;4.40;;;3.00;;
5225;SDS011;2632;51.666;7.146;2023-07-08T00:41:10;5.50;;;2.97;;
5225;SDS011;2632;51.666;7.146;2023-07-08T00:43:45;6.90;;;3.50;;
5225;SDS011;2632;51.666;7.146;2023-07-08T00:51:35;3.90;;;3.03;;
5225;SDS011;2632;51.666;7.146;2023-07-08T00:54:11;4.90;;;2.73;;
5225;SDS011;2632;51.666;7.146;2023-07-08T00:56:43;4.97;;;3.00;;
5225;SDS011;2632;51.666;7.146;2023-07-08T00:59:26;3.93;;;2.87;;
5225;SDS011;2632;51.666;7.146;2023-07-08T01:02:06;3.70;;;2.73;;
5225;SDS011;2632;51.666;7.146;2023-07-08T01:07:16;4.17;;;2.97;;
5225;SDS011;2632;51.666;7.146;2023-07-08T01:09:48;3.30;;;2.80;;
5225;SDS011;2632;51.666;7.146;2023-07-08T01:12:22;3.00;;;2.63;;
5225;SDS011;2632;51.666;7.146;2023-07-08T01:14:54;7.00;;;3.30;;
5225;SDS011;2632;51.666;7.146;2023-07-08T01:17:21;5.20;;;2.77;;
5225;SDS011;2632;51.666;7.146;2023-07-08T01:19:49;3.43;;;3.13;;
5225;SDS011;2632;51.666;7.146;2023-07-08T01:22:17;4.87;;;2.73;;
5225;SDS011;2632;51.666;7.146;2023-07-08T01:24:44;5.10;;;2.97;;
5225;SDS011;2632;51.666;7.146;2023-07-08T01:27:13;4.00;;;3.40;;
5225;SDS011;2632;51.666;7.146;2023-07-08T01:29:42;4.63;;;2.70;;
5225;SDS011;2632;51.666;7.146;2023-07-08T01:32:11;4.13;;;2.47;;
5225;SDS011;2632;51.666;7.146;2023-07-08T01:34:44;3.27;;;2.97;;
5225;SDS011;2632;51.666;7.146;2023-07-08T01:37:29;4.23;;;3.07;;
5225;SDS011;2632;51.666;7.146;2023-07-08T01:42:45;3.90;;;2.83;;
5225;SDS011;2632;51.666;7.146;2023-07-08T01:45:12;6.33;;;2.70;;
5225;SDS011;2632;51.666;7.146;2023-07-08T01:47:41;3.47;;;3.03;;
5225;SDS011;2632;51.666;7.146;2023-07-08T01:50:10;3.23;;;2.93;;
5225;SDS011;2632;51.666;7.146;2023-07-08T01:52:38;3.27;;;2.90;;
5225;SDS011;2632;51.666;7.146;2023-07-08T01:55:05;3.23;;;2.67;;
5225;SDS011;2632;51.666;7.146;2023-07-08T01:57:32;3.80;;;2.77;;
5225;SDS011;2632;51.666;7.146;2023-07-08T01:59:59;3.93;;;3.07;;
5225;SDS011;2632;51.666;7.146;2023-07-08T02:02:25;5.20;;;3.10;;
5225;SDS011;2632;51.666;7.146;2023-07-08T02:04:52;3.33;;;2.73;;
5225;SDS011;2632;51.666;7.146;2023-07-08T02:07:19;3.00;;;2.60;;
5225;SDS011;2632;51.666;7.146;2023-07-08T02:09:45;3.73;;;2.80;;
5225;SDS011;2632;51.666;7.146;2023-07-08T02:12:12;4.50;;;2.73;;
5225;SDS011;2632;51.666;7.146;2023-07-08T02:14:39;3.90;;;3.37;;
5225;SDS011;2632;51.666;7.146;2023-07-08T02:17:05;5.43;;;2.93;;
5225;SDS011;2632;51.666;7.146;2023-07-08T02:19:32;5.00;;;2.90;;
5225;SDS011;2632;51.666;7.146;2023-07-08T02:21:59;3.40;;;2.80;;
5225;SDS011;2632;51.666;7.146;2023-07-08T02:24:26;3.27;;;2.97;;
5225;SDS011;2632;51.666;7.146;2023-07-08T02:26:53;3.80;;;3.27;;
5225;SDS011;2632;51.666;7.146;2023-07-08T02:29:19;3.33;;;2.53;;
5225;SDS011;2632;51.666;7.146;2023-07-08T02:31:46;5.70;;;3.20;;
5225;SDS011;2632;51.666;7.146;2023-07-08T02:34:13;7.57;;;3.30;;
5225;SDS011;2632;51.666;7.146;2023-07-08T02:36:40;4.70;;;3.17;;
5225;SDS011;2632;51.666;7.146;2023-07-08T02:39:06;6.63;;;3.10;;
5225;SDS011;2632;51.666;7.146;2023-07-08T02:41:33;6.57;;;3.00;;
5225;SDS011;2632;51.666;7.146;2023-07-08T02:44:00;3.40;;;3.03;;
5225;SDS011;2632;51.666;7.146;2023-07-08T02:46:26;5.57;;;3.30;;
5225;SDS011;2632;51.666;7.146;2023-07-08T02:48:53;4.30;;;3.17;;
5225;SDS011;2632;51.666;7.146;2023-07-08T02:51:20;6.30;;;3.53;;
5225;SDS011;2632;51.666;7.146;2023-07-08T02:53:47;6.70;;;3.37;;
5225;SDS011;2632;51.666;7.146;2023-07-08T02:56:15;4.70;;;3.60;;
5225;SDS011;2632;51.666;7.146;2023-07-08T02:58:42;3.47;;;2.83;;
5225;SDS011;2632;51.666;7.146;2023-07-08T03:01:09;22.63;;;4.07;;
5225;SDS011;2632;51.666;7.146;2023-07-08T03:03:35;4.80;;;2.90;;
5225;SDS011;2632;51.666;7.146;2023-07-08T03:06:04;4.63;;;3.23;;
5225;SDS011;2632;51.666;7.146;2023-07-08T03:08:31;4.13;;;3.37;;
5225;SDS011;2632;51.666;7.146;2023-07-08T03:11:02;4.03;;;3.07;;
5225;SDS011;2632;51.666;7.146;2023-07-08T03:13:30;4.73;;;3.00;;
5225;SDS011;2632;51.666;7.146;2023-07-08T03:15:58;5.63;;;3.80;;
5225;SDS011;2632;51.666;7.146;2023-07-08T03:18:26;4.33;;;3.10;;
5225;SDS011;2632;51.666;7.146;2023-07-08T03:20:54;4.03;;;3.03;;
5225;SDS011;2632;51.666;7.146;2023-07-08T03:23:23;4.27;;;3.00;;
5225;SDS011;2632;51.666;7.146;2023-07-08T03:25:50;4.63;;;3.20;;
5225;SDS011;2632;51.666;7.146;2023-07-08T03:28:17;4.87;;;3.20;;
5225;SDS011;2632;51.666;7.146;2023-07-08T03:30:44;4.83;;;3.53;;
5225;SDS011;2632;51.666;7.146;2023-07-08T03:33:11;4.40;;;3.40;;
5225;SDS011;2632;51.666;7.146;2023-07-08T03:35:38;4.93;;;3.37;;
5225;SDS011;2632;51.666;7.146;2023-07-08T03:38:05;3.63;;;3.17;;
5225;SDS011;2632;51.666;7.146;2023-07-08T03:40:31;3.90;;;3.27;;
5225;SDS011;2632;51.666;7.146;2023-07-08T03:42:58;16.77;;;4.93;;
5225;SDS011;2632;51.666;7.146;2023-07-08T03:45:25;4.67;;;3.23;;
5225;SDS011;2632;51.666;7.146;2023-07-08T03:47:52;4.07;;;3.67;;
5225;SDS011;2632;51.666;7.146;2023-07-08T03:50:20;3.43;;;2.93;;
5225;SDS011;2632;51.666;7.146;2023-07-08T03:52:49;4.30;;;3.37;;
5225;SDS011;2632;51.666;7.146;2023-07-08T03:55:18;8.90;;;3.87;;
5225;SDS011;2632;51.666;7.146;2023-07-08T03:57:45;3.77;;;3.30;;
5225;SDS011;2632;51.666;7.146;2023-07-08T04:00:11;5.27;;;3.40;;
5225;SDS011;2632;51.666;7.146;2023-07-08T04:02:42;7.47;;;3.20;;
5225;SDS011;2632;51.666;7.146;2023-07-08T04:05:14;3.87;;;3.47;;
5225;SDS011;2632;51.666;7.146;2023-07-08T04:07:42;6.60;;;3.27;;
5225;SDS011;2632;51.666;7.146;2023-07-08T04:10:09;5.10;;;3.23;;
5225;SDS011;2632;51.666;7.146;2023-07-08T04:12:36;3.90;;;3.40;;
5225;SDS011;2632;51.666;7.146;2023-07-08T04:15:03;6.73;;;3.50;;
5225;SDS011;2632;51.666;7.146;2023-07-08T04:17:31;4.80;;;3.33;;
5225;SDS011;2632;51.666;7.146;2023-07-08T04:19:58;4.20;;;3.50;;
5225;SDS011;2632;51.666;7.146;2023-07-08T04:22:32;4.67;;;3.57;;
5225;SDS011;2632;51.666;7.146;2023-07-08T04:24:58;6.80;;;3.43;;
5225;SDS011;2632;51.666;7.146;2023-07-08T04:27:25;6.10;;;3.90;;
5225;SDS011;2632;51.666;7.146;2023-07-08T04:29:52;3.70;;;3.30;;
5225;SDS011;2632;51.666;7.146;2023-07-08T04:32:18;4.70;;;3.27;;
5225;SDS011;2632;51.666;7.146;2023-07-08T04:34:45;5.40;;;3.43;;
5225;SDS011;2632;51.666;7.146;2023-07-08T04:37:11;5.63;;;3.83;;
5225;SDS011;2632;51.666;7.146;2023-07-08T04:39:38;3.90;;;3.57;;
5225;SDS011;2632;51.666;7.146;2023-07-08T04:42:05;8.43;;;3.90;;
5225;SDS011;2632;51.666;7.146;2023-07-08T04:44:32;6.90;;;3.30;;
5225;SDS011;2632;51.666;7.146;2023-07-08T04:46:58;3.57;;;3.17;;
5225;SDS011;2632;51.666;7.146;2023-07-08T04:49:26;5.70;;;3.73;;
5225;SDS011;2632;51.666;7.146;2023-07-08T04:51:57;4.93;;;3.53;;
5225;SDS011;2632;51.666;7.146;2023-07-08T04:54:25;4.60;;;3.77;;
5225;SDS011;2632;51.666;7.146;2023-07-08T04:56:52;4.80;;;3.40;;
5225;SDS011;2632;51.666;7.146;2023-07-08T04:59:19;5.83;;;3.47;;
5225;SDS011;2632;51.666;7.146;2023-07-08T05:01:48;4.47;;;3.83;;
5225;SDS011;2632;51.666;7.146;2023-07-08T05:04:16;5.70;;;3.83;;
5225;SDS011;2632;51.666;7.146;2023-07-08T05:06:44;5.30;;;3.37;;
5225;SDS011;2632;51.666;7.146;2023-07-08T05:09:12;5.50;;;3.80;;
5225;SDS011;2632;51.666;7.146;2023-07-08T05:11:42;4.20;;;3.33;;
5225;SDS011;2632;51.666;7.146;2023-07-08T05:14:10;3.90;;;3.50;;
5225;SDS011;2632;51.666;7.146;2023-07-08T05:16:38;5.50;;;3.63;;
5225;SDS011;2632;51.666;7.146;2023-07-08T05:19:06;4.03;;;3.53;;
5225;SDS011;2632;51.666;7.146;2023-07-08T05:21:33;8.27;;;3.60;;
5225;SDS011;2632;51.666;7.146;2023-07-08T05:24:04;6.43;;;3.37;;
5225;SDS011;2632;51.666;7.146;2023-07-08T05:26:31;4.37;;;3.00;;
5225;SDS011;2632;51.666;7.146;2023-07-08T05:28:58;6.20;;;3.73;;
5225;SDS011;2632;51.666;7.146;2023-07-08T05:31:25;9.70;;;4.00;;
5225;SDS011;2632;51.666;7.146;2023-07-08T05:34:11;4.53;;;2.97;;
5225;SDS011;2632;51.666;7.146;2023-07-08T05:36:37;4.00;;;3.47;;
5225;SDS011;2632;51.666;7.146;2023-07-08T05:39:05;6.90;;;3.83;;
5225;SDS011;2632;51.666;7.146;2023-07-08T05:41:31;4.90;;;3.67;;
5225;SDS011;2632;51.666;7.146;2023-07-08T05:43:58;5.20;;;3.33;;
5225;SDS011;2632;51.666;7.146;2023-07-08T05:46:25;3.57;;;3.23;;
5225;SDS011;2632;51.666;7.146;2023-07-08T05:48:51;5.63;;;3.50;;
5225;SDS011;2632;51.666;7.146;2023-07-08T05:51:22;5.57;;;3.70;;
5225;SDS011;2632;51.666;7.146;2023-07-08T05:53:49;8.47;;;3.17;;
5225;SDS011;2632;51.666;7.146;2023-07-08T05:56:16;6.10;;;3.67;;
5225;SDS011;2632;51.666;7.146;2023-07-08T05:58:42;4.50;;;3.43;;
5225;SDS011;2632;51.666;7.146;2023-07-08T06:01:09;6.33;;;2.90;;
5225;SDS011;2632;51.666;7.146;2023-07-08T06:03:36;3.83;;;3.43;;
5225;SDS011;2632;51.666;7.146;2023-07-08T06:06:03;7.40;;;3.73;;
5225;SDS011;2632;51.666;7.146;2023-07-08T06:08:34;5.43;;;3.47;;
5225;SDS011;2632;51.666;7.146;2023-07-08T06:11:00;7.83;;;3.50;;
5225;SDS011;2632;51.666;7.146;2023-07-08T06:13:28;6.57;;;3.73;;
5225;SDS011;2632;51.666;7.146;2023-07-08T06:15:54;6.77;;;3.50;;
5225;SDS011;2632;51.666;7.146;2023-07-08T06:18:21;5.27;;;3.80;;
5225;SDS011;2632;51.666;7.146;2023-07-08T06:20:55;4.53;;;3.73;;
5225;SDS011;2632;51.666;7.146;2023-07-08T06:23:24;3.50;;;3.13;;
5225;SDS011;2632;51.666;7.146;2023-07-08T06:25:51;9.13;;;4.30;;
5225;SDS011;2632;51.666;7.146;2023-07-08T06:28:18;4.73;;;3.70;;
5225;SDS011;2632;51.666;7.146;2023-07-08T06:30:46;6.33;;;3.83;;
5225;SDS011;2632;51.666;7.146;2023-07-08T06:33:13;5.27;;;3.67;;
5225;SDS011;2632;51.666;7.146;2023-07-08T06:35:40;5.00;;;3.70;;
5225;SDS011;2632;51.666;7.146;2023-07-08T06:38:07;6.03;;;4.13;;
5225;SDS011;2632;51.666;7.146;2023-07-08T06:40:34;5.90;;;3.67;;
5225;SDS011;2632;51.666;7.146;2023-07-08T06:43:02;8.20;;;3.07;;
5225;SDS011;2632;51.666;7.146;2023-07-08T06:45:29;7.23;;;3.80;;
5225;SDS011;2632;51.666;7.146;2023-07-08T06:47:56;6.50;;;3.40;;
5225;SDS011;2632;51.666;7.146;2023-07-08T06:50:23;6.03;;;3.50;;
5225;SDS011;2632;51.666;7.146;2023-07-08T06:52:49;6.53;;;3.87;;
5225;SDS011;2632;51.666;7.146;2023-07-08T06:55:16;3.30;;;3.00;;
5225;SDS011;2632;51.666;7.146;2023-07-08T06:57:43;4.97;;;3.40;;
5225;SDS011;2632;51.666;7.146;2023-07-08T07:00:10;4.80;;;3.70;;
5225;SDS011;2632;51.666;7.146;2023-07-08T07:02:38;4.27;;;3.50;;
5225;SDS011;2632;51.666;7.146;2023-07-08T07:05:05;4.87;;;3.60;;
5225;SDS011;2632;51.666;7.146;2023-07-08T07:07:32;5.53;;;3.23;;
5225;SDS011;2632;51.666;7.146;2023-07-08T07:10:00;5.00;;;3.50;;
5225;SDS011;2632;51.666;7.146;2023-07-08T07:12:27;5.80;;;4.03;;
5225;SDS011;2632;51.666;7.146;2023-07-08T07:14:53;5.40;;;3.77;;
5225;SDS011;2632;51.666;7.146;2023-07-08T07:17:21;4.37;;;3.30;;
5225;SDS011;2632;51.666;7.146;2023-07-08T07:19:48;9.20;;;3.70;;
5225;SDS011;2632;51.666;7.146;2023-07-08T07:22:15;8.40;;;3.80;;
5225;SDS011;2632;51.666;7.146;2023-07-08T07:24:42;4.47;;;3.53;;
5225;SDS011;2632;51.666;7.146;2023-07-08T07:27:09;5.07;;;3.50;;
5225;SDS011;2632;51.666;7.146;2023-07-08T07:29:43;6.03;;;3.80;;
5225;SDS011;2632;51.666;7.146;2023-07-08T07:32:12;4.23;;;3.57;;
5225;SDS011;2632;51.666;7.146;2023-07-08T07:34:40;3.90;;;3.30;;
5225;SDS011;2632;51.666;7.146;2023-07-08T07:37:09;5.20;;;3.40;;
5225;SDS011;2632;51.666;7.146;2023-07-08T07:39:38;5.10;;;3.40;;
5225;SDS011;2632;51.666;7.146;2023-07-08T07:42:05;7.07;;;3.77;;
5225;SDS011;2632;51.666;7.146;2023-07-08T07:44:32;5.67;;;4.10;;
5225;SDS011;2632;51.666;7.146;2023-07-08T07:46:58;5.10;;;3.90;;
5225;SDS011;2632;51.666;7.146;2023-07-08T07:49:25;6.20;;;3.60;;
5225;SDS011;2632;51.666;7.146;2023-07-08T07:51:52;4.43;;;3.63;;
5225;SDS011;2632;51.666;7.146;2023-07-08T07:54:19;5.67;;;3.47;;
5225;SDS011;2632;51.666;7.146;2023-07-08T07:56:45;4.77;;;3.50;;
5225;SDS011;2632;51.666;7.146;2023-07-08T07:59:12;6.10;;;3.80;;
5225;SDS011;2632;51.666;7.146;2023-07-08T08:01:39;5.17;;;3.87;;
5225;SDS011;2632;51.666;7.146;2023-07-08T08:04:07;6.93;;;3.97;;
5225;SDS011;2632;51.666;7.146;2023-07-08T08:06:34;8.50;;;3.90;;
5225;SDS011;2632;51.666;7.146;2023-07-08T08:09:01;4.47;;;3.53;;
5225;SDS011;2632;51.666;7.146;2023-07-08T08:11:28;4.63;;;3.70;;
5225;SDS011;2632;51.666;7.146;2023-07-08T08:13:55;5.20;;;3.50;;
5225;SDS011;2632;51.666;7.146;2023-07-08T08:16:22;4.80;;;3.60;;
5225;SDS011;2632;51.666;7.146;2023-07-08T08:18:49;6.43;;;4.00;;
5225;SDS011;2632;51.666;7.146;2023-07-08T08:21:16;5.10;;;3.83;;
5225;SDS011;2632;51.666;7.146;2023-07-08T08:23:43;5.30;;;3.43;;
5225;SDS011;2632;51.666;7.146;2023-07-08T08:26:09;5.30;;;3.50;;
5225;SDS011;2632;51.666;7.146;2023-07-08T08:28:36;6.07;;;4.03;;
5225;SDS011;2632;51.666;7.146;2023-07-08T08:31:03;13.27;;;4.63;;
5225;SDS011;2632;51.666;7.146;2023-07-08T08:33:30;4.60;;;3.60;;
5225;SDS011;2632;51.666;7.146;2023-07-08T08:35:57;6.80;;;4.83;;
5225;SDS011;2632;51.666;7.146;2023-07-08T08:38:24;5.27;;;3.90;;
5225;SDS011;2632;51.666;7.146;2023-07-08T08:40:51;5.67;;;3.77;;
5225;SDS011;2632;51.666;7.146;2023-07-08T08:43:18;4.70;;;4.20;;
5225;SDS011;2632;51.666;7.146;2023-07-08T08:48:56;5.20;;;3.90;;
5225;SDS011;2632;51.666;7.146;2023-07-08T08:51:31;8.63;;;4.50;;
5225;SDS011;2632;51.666;7.146;2023-07-08T08:53:58;7.20;;;4.20;;
5225;SDS011;2632;51.666;7.146;2023-07-08T08:56:29;5.80;;;4.03;;
5225;SDS011;2632;51.666;7.146;2023-07-08T08:59:04;7.33;;;3.90;;
5225;SDS011;2632;51.666;7.146;2023-07-08T09:01:42;7.60;;;4.20;;
5225;SDS011;2632;51.666;7.146;2023-07-08T09:04:21;5.70;;;4.27;;
5225;SDS011;2632;51.666;7.146;2023-07-08T09:06:56;7.43;;;4.23;;
5225;SDS011;2632;51.666;7.146;2023-07-08T09:09:35;6.27;;;4.53;;
5225;SDS011;2632;51.666;7.146;2023-07-08T09:12:05;8.13;;;4.80;;
5225;SDS011;2632;51.666;7.146;2023-07-08T09:14:38;6.43;;;4.27;;
5225;SDS011;2632;51.666;7.146;2023-07-08T09:19:44;5.50;;;4.40;;
5225;SDS011;2632;51.666;7.146;2023-07-08T09:24:53;5.60;;;4.23;;
5225;SDS011;2632;51.666;7.146;2023-07-08T09:27:24;5.77;;;3.70;;
5225;SDS011;2632;51.666;7.146;2023-07-08T09:29:51;5.80;;;4.60;;
5225;SDS011;2632;51.666;7.146;2023-07-08T09:32:22;7.60;;;4.50;;
5225;SDS011;2632;51.666;7.146;2023-07-08T09:34:51;6.10;;;4.07;;
5225;SDS011;2632;51.666;7.146;2023-07-08T09:37:26;9.03;;;4.67;;
5225;SDS011;2632;51.666;7.146;2023-07-08T09:39:56;6.30;;;4.43;;
5225;SDS011;2632;51.666;7.146;2023-07-08T09:42:25;7.57;;;4.50;;
5225;SDS011;2632;51.666;7.146;2023-07-08T09:44:56;5.00;;;4.20;;
5225;SDS011;2632;51.666;7.146;2023-07-08T09:47:28;7.20;;;5.00;;
5225;SDS011;2632;51.666;7.146;2023-07-08T09:49:59;10.67;;;5.17;;
5225;SDS011;2632;51.666;7.146;2023-07-08T09:52:29;15.73;;;4.72;;
5225;SDS011;2632;51.666;7.146;2023-07-08T09:54:56;6.88;;;4.28;;
5225;SDS011;2632;51.666;7.146;2023-07-08T09:57:25;5.40;;;4.43;;
5225;SDS011;2632;51.666;7.146;2023-07-08T10:00:02;8.30;;;4.83;;
5225;SDS011;2632;51.666;7.146;2023-07-08T10:02:49;8.30;;;4.70;;
5225;SDS011;2632;51.666;7.146;2023-07-08T10:05:22;5.28;;;4.13;;
5225;SDS011;2632;51.666;7.146;2023-07-08T10:07:57;7.65;;;5.03;;
5225;SDS011;2632;51.666;7.146;2023-07-08T10:10:35;7.90;;;5.13;;
5225;SDS011;2632;51.666;7.146;2023-07-08T10:13:50;10.75;;;4.93;;
5225;SDS011;2632;51.666;7.146;2023-07-08T10:16:19;5.32;;;4.20;;
5225;SDS011;2632;51.666;7.146;2023-07-08T10:18:50;7.55;;;4.90;;
5225;SDS011;2632;51.666;7.146;2023-07-08T10:24:00;8.27;;;4.82;;
5225;SDS011;2632;51.666;7.146;2023-07-08T10:26:37;9.90;;;5.43;;
5225;SDS011;2632;51.666;7.146;2023-07-08T10:29:26;6.25;;;4.70;;
5225;SDS011;2632;51.666;7.146;2023-07-08T10:32:04;8.35;;;4.97;;
5225;SDS011;2632;51.666;7.146;2023-07-08T10:34:52;6.15;;;5.03;;
5225;SDS011;2632;51.666;7.146;2023-07-08T10:40:24;10.32;;;5.30;;
5225;SDS011;2632;51.666;7.146;2023-07-08T10:43:23;10.15;;;5.38;;
5225;SDS011;2632;51.666;7.146;2023-07-08T10:54:37;6.95;;;5.30;;
5225;SDS011;2632;51.666;7.146;2023-07-08T11:00:39;5.30;;;4.80;;
5225;SDS011;2632;51.666;7.146;2023-07-08T11:03:51;8.40;;;4.90;;
5225;SDS011;2632;51.666;7.146;2023-07-08T11:06:07;7.82;;;5.55;;
5225;SDS011;2632;51.666;7.146;2023-07-08T11:08:43;7.78;;;4.78;;
5225;SDS011;2632;51.666;7.146;2023-07-08T11:14:09;5.90;;;5.30;;
5225;SDS011;2632;51.666;7.146;2023-07-08T11:16:45;7.70;;;5.00;;
5225;SDS011;2632;51.666;7.146;2023-07-08T11:19:24;9.30;;;4.45;;
5225;SDS011;2632;51.666;7.146;2023-07-08T11:21:58;9.70;;;4.95;;
5225;SDS011;2632;51.666;7.146;2023-07-08T11:26:59;8.90;;;5.22;;
5225;SDS011;2632;51.666;7.146;2023-07-08T11:30:12;10.15;;;5.22;;
5225;SDS011;2632;51.666;7.146;2023-07-08T11:32:42;7.35;;;5.07;;
5225;SDS011;2632;51.666;7.146;2023-07-08T11:35:19;10.00;;;4.10;;
5225;SDS011;2632;51.666;7.146;2023-07-08T11:37:52;7.53;;;4.78;;
5225;SDS011;2632;51.666;7.146;2023-07-08T11:40:21;6.38;;;4.72;;
5225;SDS011;2632;51.666;7.146;2023-07-08T11:42:50;8.20;;;4.22;;
5225;SDS011;2632;51.666;7.146;2023-07-08T11:50:42;7.38;;;4.60;;
5225;SDS011;2632;51.666;7.146;2023-07-08T12:09:15;4.82;;;3.28;;
5225;SDS011;2632;51.666;7.146;2023-07-08T12:11:53;4.32;;;3.15;;
5225;SDS011;2632;51.666;7.146;2023-07-08T12:14:22;4.43;;;3.30;;
5225;SDS011;2632;51.666;7.146;2023-07-08T12:16:50;4.35;;;3.42;;
5225;SDS011;2632;51.666;7.146;2023-07-08T12:19:17;4.82;;;3.60;;
5225;SDS011;2632;51.666;7.146;2023-07-08T12:21:46;4.93;;;3.00;;
5225;SDS011;2632;51.666;7.146;2023-07-08T12:24:15;12.43;;;3.33;;
5225;SDS011;2632;51.666;7.146;2023-07-08T12:26:52;4.15;;;2.95;;
5225;SDS011;2632;51.666;7.146;2023-07-08T12:29:19;5.07;;;3.13;;
5225;SDS011;2632;51.666;7.146;2023-07-08T12:31:49;4.75;;;2.97;;
5225;SDS011;2632;51.666;7.146;2023-07-08T12:34:16;3.67;;;3.17;;
5225;SDS011;2632;51.666;7.146;2023-07-08T12:36:46;4.30;;;3.00;;
5225;SDS011;2632;51.666;7.146;2023-07-08T12:39:15;5.40;;;3.30;;
5225;SDS011;2632;51.666;7.146;2023-07-08T12:41:44;3.65;;;3.10;;
5225;SDS011;2632;51.666;7.146;2023-07-08T12:44:17;4.43;;;3.50;;
5225;SDS011;2632;51.666;7.146;2023-07-08T12:46:46;5.45;;;3.67;;
5225;SDS011;2632;51.666;7.146;2023-07-08T12:49:15;5.57;;;3.20;;
5225;SDS011;2632;51.666;7.146;2023-07-08T12:51:46;4.85;;;3.42;;
5225;SDS011;2632;51.666;7.146;2023-07-08T12:54:16;7.07;;;3.60;;
5225;SDS011;2632;51.666;7.146;2023-07-08T12:56:48;9.20;;;4.30;;
5225;SDS011;2632;51.666;7.146;2023-07-08T12:59:19;4.50;;;3.60;;
5225;SDS011;2632;51.666;7.146;2023-07-08T13:01:48;4.85;;;3.20;;
5225;SDS011;2632;51.666;7.146;2023-07-08T13:04:16;6.72;;;4.28;;
5225;SDS011;2632;51.666;7.146;2023-07-08T13:06:44;3.42;;;3.10;;
5225;SDS011;2632;51.666;7.146;2023-07-08T13:11:56;5.22;;;3.70;;
5225;SDS011;2632;51.666;7.146;2023-07-08T13:14:24;8.77;;;4.05;;
5225;SDS011;2632;51.666;7.146;2023-07-08T13:16:51;4.75;;;3.30;;
5225;SDS011;2632;51.666;7.146;2023-07-08T13:19:18;5.50;;;4.18;;
5225;SDS011;2632;51.666;7.146;2023-07-08T13:21:48;3.67;;;3.20;;
5225;SDS011;2632;51.666;7.146;2023-07-08T13:24:16;5.70;;;3.53;;
5225;SDS011;2632;51.666;7.146;2023-07-08T13:26:46;5.38;;;3.67;;
5225;SDS011;2632;51.666;7.146;2023-07-08T13:29:15;5.88;;;3.92;;
5225;SDS011;2632;51.666;7.146;2023-07-08T13:31:46;6.43;;;4.10;;
5225;SDS011;2632;51.666;7.146;2023-07-08T13:34:16;10.30;;;3.97;;
5225;SDS011;2632;51.666;7.146;2023-07-08T13:36:45;5.03;;;4.30;;
5225;SDS011;2632;51.666;7.146;2023-07-08T13:39:17;6.18;;;5.22;;
5225;SDS011;2632;51.666;7.146;2023-07-08T13:41:48;5.13;;;3.58;;
5225;SDS011;2632;51.666;7.146;2023-07-08T13:44:15;5.18;;;3.35;;
5225;SDS011;2632;51.666;7.146;2023-07-08T13:46:49;4.25;;;3.30;;
5225;SDS011;2632;51.666;7.146;2023-07-08T13:49:27;3.47;;;3.15;;
5225;SDS011;2632;51.666;7.146;2023-07-08T13:54:45;9.65;;;4.00;;
5225;SDS011;2632;51.666;7.146;2023-07-08T13:57:18;5.50;;;4.00;;
5225;SDS011;2632;51.666;7.146;2023-07-08T13:59:47;12.50;;;3.38;;
5225;SDS011;2632;51.666;7.146;2023-07-08T14:04:46;4.63;;;3.47;;
5225;SDS011;2632;51.666;7.146;2023-07-08T14:07:16;4.93;;;3.25;;
5225;SDS011;2632;51.666;7.146;2023-07-08T14:09:51;6.38;;;4.38;;
5225;SDS011;2632;51.666;7.146;2023-07-08T14:12:18;5.78;;;3.38;;
5225;SDS011;2632;51.666;7.146;2023-07-08T14:14:48;5.03;;;3.50;;
5225;SDS011;2632;51.666;7.146;2023-07-08T14:17:25;6.50;;;3.90;;
5225;SDS011;2632;51.666;7.146;2023-07-08T14:19:53;5.15;;;3.97;;
5225;SDS011;2632;51.666;7.146;2023-07-08T14:22:24;4.63;;;3.47;;
5225;SDS011;2632;51.666;7.146;2023-07-08T14:24:53;7.65;;;3.42;;
5225;SDS011;2632;51.666;7.146;2023-07-08T14:27:21;6.60;;;3.75;;
5225;SDS011;2632;51.666;7.146;2023-07-08T14:29:49;4.00;;;3.50;;
5225;SDS011;2632;51.666;7.146;2023-07-08T14:34:56;5.55;;;3.65;;
5225;SDS011;2632;51.666;7.146;2023-07-08T14:37:38;5.38;;;3.53;;
5225;SDS011;2632;51.666;7.146;2023-07-08T14:40:24;6.03;;;3.97;;
5225;SDS011;2632;51.666;7.146;2023-07-08T14:42:58;4.25;;;3.25;;
5225;SDS011;2632;51.666;7.146;2023-07-08T14:45:32;8.23;;;3.20;;
5225;SDS011;2632;51.666;7.146;2023-07-08T14:48:08;6.32;;;3.97;;
5225;SDS011;2632;51.666;7.146;2023-07-08T14:50:36;5.10;;;3.47;;
5225;SDS011;2632;51.666;7.146;2023-07-08T14:53:03;4.80;;;3.80;;
5225;SDS011;2632;51.666;7.146;2023-07-08T14:55:30;5.72;;;3.80;;
5225;SDS011;2632;51.666;7.146;2023-07-08T14:57:57;6.82;;;3.47;;
5225;SDS011;2632;51.666;7.146;2023-07-08T15:00:24;5.47;;;3.30;;
5225;SDS011;2632;51.666;7.146;2023-07-08T15:02:51;7.72;;;4.10;;
5225;SDS011;2632;51.666;7.146;2023-07-08T15:05:20;4.22;;;3.28;;
5225;SDS011;2632;51.666;7.146;2023-07-08T15:07:51;5.72;;;3.63;;
5225;SDS011;2632;51.666;7.146;2023-07-08T15:10:19;4.68;;;3.60;;
5225;SDS011;2632;51.666;7.146;2023-07-08T15:12:47;5.85;;;3.65;;
5225;SDS011;2632;51.666;7.146;2023-07-08T15:15:26;7.05;;;3.45;;
5225;SDS011;2632;51.666;7.146;2023-07-08T15:17:58;4.28;;;3.03;;
5225;SDS011;2632;51.666;7.146;2023-07-08T15:20:28;4.72;;;3.42;;
5225;SDS011;2632;51.666;7.146;2023-07-08T15:22:57;5.43;;;3.53;;
5225;SDS011;2632;51.666;7.146;2023-07-08T15:25:24;5.22;;;3.20;;
5225;SDS011;2632;51.666;7.146;2023-07-08T15:27:52;5.32;;;3.80;;
5225;SDS011;2632;51.666;7.146;2023-07-08T15:30:21;7.50;;;3.13;;
5225;SDS011;2632;51.666;7.146;2023-07-08T15:32:50;7.97;;;3.45;;
5225;SDS011;2632;51.666;7.146;2023-07-08T15:35:21;5.40;;;3.45;;
5225;SDS011;2632;51.666;7.146;2023-07-08T15:37:56;5.25;;;3.50;;
5225;SDS011;2632;51.666;7.146;2023-07-08T15:40:24;6.80;;;3.90;;
5225;SDS011;2632;51.666;7.146;2023-07-08T15:42:53;6.28;;;3.65;;
5225;SDS011;2632;51.666;7.146;2023-07-08T15:45:22;12.00;;;3.45;;
5225;SDS011;2632;51.666;7.146;2023-07-08T15:47:51;5.40;;;4.75;;
5225;SDS011;2632;51.666;7.146;2023-07-08T15:50:20;6.95;;;3.83;;
5225;SDS011;2632;51.666;7.146;2023-07-08T15:52:49;4.40;;;3.30;;
5225;SDS011;2632;51.666;7.146;2023-07-08T15:55:17;4.25;;;3.20;;
5225;SDS011;2632;51.666;7.146;2023-07-08T15:58:09;5.70;;;3.33;;
5225;SDS011;2632;51.666;7.146;2023-07-08T16:00:58;5.10;;;3.58;;
5225;SDS011;2632;51.666;7.146;2023-07-08T16:03:28;5.63;;;4.07;;
5225;SDS011;2632;51.666;7.146;2023-07-08T16:05:58;5.32;;;3.45;;
5225;SDS011;2632;51.666;7.146;2023-07-08T16:08:25;6.47;;;3.78;;
5225;SDS011;2632;51.666;7.146;2023-07-08T16:11:02;5.03;;;3.60;;
5225;SDS011;2632;51.666;7.146;2023-07-08T16:13:33;6.00;;;3.78;;
5225;SDS011;2632;51.666;7.146;2023-07-08T16:16:01;5.38;;;3.22;;
5225;SDS011;2632;51.666;7.146;2023-07-08T16:18:28;3.95;;;3.00;;
5225;SDS011;2632;51.666;7.146;2023-07-08T16:20:54;7.60;;;3.67;;
5225;SDS011;2632;51.666;7.146;2023-07-08T16:23:21;5.25;;;3.75;;
5225;SDS011;2632;51.666;7.146;2023-07-08T16:25:49;4.22;;;3.42;;
5225;SDS011;2632;51.666;7.146;2023-07-08T16:28:37;4.35;;;3.88;;
5225;SDS011;2632;51.666;7.146;2023-07-08T16:31:13;4.72;;;4.18;;
5225;SDS011;2632;51.666;7.146;2023-07-08T16:33:44;9.23;;;4.72;;
5225;SDS011;2632;51.666;7.146;2023-07-08T16:36:12;5.05;;;4.05;;
5225;SDS011;2632;51.666;7.146;2023-07-08T16:38:41;6.47;;;4.28;;
5225;SDS011;2632;51.666;7.146;2023-07-08T16:41:10;4.18;;;3.60;;
5225;SDS011;2632;51.666;7.146;2023-07-08T16:43:38;7.05;;;4.43;;
5225;SDS011;2632;51.666;7.146;2023-07-08T16:46:07;7.78;;;4.15;;